createdAt,value
2024-04-16T00:01:01.559Z,17.60
2024-04-16T00:03:29.297Z,17.60
2024-04-16T00:05:57.206Z,17.60
2024-04-16T00:08:24.845Z,17.60
2024-04-16T00:10:52.397Z,17.50
2024-04-16T00:13:20.320Z,17.50
2024-04-16T00:15:47.820Z,17.40
2024-04-16T00:18:15.337Z,17.30
2024-04-16T00:20:42.910Z,17.20
2024-04-16T00:23:10.631Z,17.20
2024-04-16T00:25:38.207Z,17.20
2024-04-16T00:28:05.842Z,17.20
2024-04-16T00:30:33.400Z,17.30
2024-04-16T00:33:00.976Z,17.30
2024-04-16T00:35:28.540Z,17.20
2024-04-16T00:37:56.088Z,17.20
2024-04-16T00:40:23.630Z,17.20
2024-04-16T00:42:52.561Z,17.10
2024-04-16T00:45:20.154Z,17.00
2024-04-16T00:47:47.828Z,16.70
2024-04-16T00:50:16.266Z,16.70
2024-04-16T00:52:44.241Z,16.50
2024-04-16T00:55:12.311Z,16.30
2024-04-16T00:57:40.422Z,16.10
2024-04-16T01:00:08.509Z,15.90
2024-04-16T01:02:36.199Z,15.90
2024-04-16T01:05:03.876Z,15.90
2024-04-16T01:07:33.003Z,15.90
2024-04-16T01:10:00.734Z,15.90
2024-04-16T01:12:28.315Z,15.90
2024-04-16T01:14:55.958Z,15.90
2024-04-16T01:17:23.593Z,15.80
2024-04-16T01:19:51.087Z,15.80
2024-04-16T01:22:18.552Z,15.90
2024-04-16T01:24:46.150Z,15.90
2024-04-16T01:27:13.647Z,15.90
2024-04-16T01:29:41.152Z,16.00
2024-04-16T01:32:08.777Z,16.10
2024-04-16T01:34:36.380Z,16.10
2024-04-16T01:37:03.991Z,16.20
2024-04-16T01:39:32.180Z,16.20
2024-04-16T01:42:01.068Z,16.20
2024-04-16T01:44:28.671Z,16.30
2024-04-16T01:46:56.153Z,16.40
2024-04-16T01:49:23.640Z,16.50
2024-04-16T01:51:51.159Z,16.50
2024-04-16T01:54:18.642Z,16.50
2024-04-16T01:56:46.133Z,16.40
2024-04-16T01:59:13.649Z,16.30
2024-04-16T02:01:41.205Z,16.20
2024-04-16T02:04:08.814Z,16.10
2024-04-16T02:06:36.528Z,15.90
2024-04-16T02:09:04.230Z,15.80
2024-04-16T02:11:31.747Z,15.60
2024-04-16T02:13:59.338Z,15.60
2024-04-16T02:16:27.263Z,15.60
2024-04-16T02:18:54.814Z,15.60
2024-04-16T02:21:22.345Z,15.60
2024-04-16T02:23:49.857Z,15.50
2024-04-16T02:26:17.467Z,15.50
2024-04-16T02:28:46.035Z,15.60
2024-04-16T02:31:13.624Z,15.60
2024-04-16T02:33:41.214Z,15.60
2024-04-16T02:36:08.744Z,15.70
2024-04-16T02:38:36.252Z,15.60
2024-04-16T02:41:03.820Z,15.70
2024-04-16T02:43:31.462Z,15.70
2024-04-16T02:45:59.232Z,15.70
2024-04-16T02:48:26.818Z,15.80
2024-04-16T02:50:55.630Z,15.80
2024-04-16T02:53:23.241Z,15.80
2024-04-16T02:55:50.738Z,15.80
2024-04-16T02:58:18.278Z,15.80
2024-04-16T03:00:46.203Z,15.80
2024-04-16T03:03:13.828Z,15.70
2024-04-16T03:05:41.324Z,15.60
2024-04-16T03:08:08.877Z,15.60
2024-04-16T03:10:40.746Z,15.50
2024-04-16T03:13:08.338Z,15.40
2024-04-16T03:15:35.992Z,15.40
2024-04-16T03:18:03.693Z,15.30
2024-04-16T03:20:31.286Z,15.30
2024-04-16T03:22:59.017Z,15.40
2024-04-16T03:25:26.611Z,15.40
2024-04-16T03:27:54.144Z,15.50
2024-04-16T03:30:21.685Z,15.50
2024-04-16T03:32:50.831Z,15.40
2024-04-16T03:35:18.462Z,15.30
2024-04-16T03:37:47.080Z,15.30
2024-04-16T03:40:14.643Z,15.10
2024-04-16T03:42:42.214Z,14.90
2024-04-16T03:45:09.749Z,14.70
2024-04-16T03:47:37.293Z,14.70
2024-04-16T03:50:05.230Z,14.70
2024-04-16T03:52:32.904Z,14.70
2024-04-16T03:55:00.604Z,14.80
2024-04-16T03:57:28.193Z,14.90
2024-04-16T03:59:55.658Z,15.00
2024-04-16T04:02:23.208Z,15.10
2024-04-16T04:04:50.766Z,15.20
2024-04-16T04:07:19.025Z,15.40
2024-04-16T04:09:47.691Z,15.50
2024-04-16T04:12:15.491Z,15.60
2024-04-16T04:14:44.142Z,15.70
2024-04-16T04:17:12.272Z,15.80
2024-04-16T04:19:39.927Z,15.70
2024-04-16T04:22:07.480Z,15.70
2024-04-16T04:24:35.774Z,15.70
2024-04-16T04:27:05.075Z,15.70
2024-04-16T04:29:32.619Z,15.60
2024-04-16T04:32:00.274Z,15.50
2024-04-16T04:34:27.964Z,15.40
2024-04-16T04:36:55.696Z,15.20
2024-04-16T04:39:23.272Z,15.10
2024-04-16T04:41:50.766Z,15.00
2024-04-16T04:44:18.336Z,14.80
2024-04-16T04:46:45.980Z,14.80
2024-04-16T04:49:13.600Z,14.70
2024-04-16T04:51:41.184Z,14.70
2024-04-16T04:54:08.903Z,14.70
2024-04-16T04:56:36.385Z,14.70
2024-04-16T04:59:03.977Z,14.70
2024-04-16T05:01:31.586Z,14.80
2024-04-16T05:03:59.390Z,14.80
2024-04-16T05:06:26.962Z,14.80
2024-04-16T05:08:54.486Z,14.80
2024-04-16T05:11:22.045Z,14.80
2024-04-16T05:13:49.760Z,14.90
2024-04-16T05:16:17.440Z,14.90
2024-04-16T05:18:45.565Z,15.00
2024-04-16T05:21:13.164Z,15.10
2024-04-16T05:23:40.749Z,15.20
2024-04-16T05:26:08.358Z,15.20
2024-04-16T05:28:36.168Z,15.30
2024-04-16T05:31:04.110Z,15.30
2024-04-16T05:33:31.716Z,15.20
2024-04-16T05:36:05.045Z,15.10
2024-04-16T05:38:34.937Z,15.10
2024-04-16T05:41:05.835Z,15.10
2024-04-16T05:43:33.467Z,15.10
2024-04-16T05:46:01.065Z,15.20
2024-04-16T05:48:28.802Z,15.20
2024-04-16T05:50:56.680Z,15.40
2024-04-16T05:53:24.203Z,15.50
2024-04-16T05:55:51.766Z,15.50
2024-04-16T05:58:19.446Z,15.60
2024-04-16T06:00:47.069Z,15.70
2024-04-16T06:03:14.585Z,15.90
2024-04-16T06:05:42.140Z,16.00
2024-04-16T06:08:09.691Z,16.20
2024-04-16T06:10:37.302Z,16.40
2024-04-16T06:13:05.152Z,16.60
2024-04-16T06:15:33.044Z,16.80
2024-04-16T06:18:00.634Z,17.10
2024-04-16T06:20:28.388Z,17.30
2024-04-16T06:22:56.585Z,17.60
2024-04-16T06:25:24.645Z,17.80
2024-04-16T06:27:52.200Z,18.00
2024-04-16T06:30:19.832Z,18.30
2024-04-16T06:32:47.441Z,18.40
2024-04-16T06:35:15.419Z,18.40
2024-04-16T06:37:43.189Z,18.10
2024-04-16T06:40:10.898Z,18.20
2024-04-16T06:42:38.455Z,18.00
2024-04-16T06:45:06.461Z,18.40
2024-04-16T06:47:34.176Z,18.70
2024-04-16T06:50:03.700Z,19.00
2024-04-16T06:52:31.600Z,19.30
2024-04-16T06:54:59.517Z,19.50
2024-04-16T06:57:27.917Z,19.60
2024-04-16T06:59:55.582Z,19.90
2024-04-16T07:02:23.248Z,20.20
2024-04-16T07:04:50.995Z,20.40
2024-04-16T07:07:18.569Z,20.40
2024-04-16T07:09:46.129Z,20.60
2024-04-16T07:12:13.816Z,20.90
2024-04-16T07:14:41.346Z,21.20
2024-04-16T07:17:09.031Z,21.50
2024-04-16T07:19:36.648Z,21.70
2024-04-16T07:22:04.830Z,21.60
2024-04-16T07:24:32.508Z,21.40
2024-04-16T07:27:00.027Z,21.40
2024-04-16T07:29:27.544Z,21.50
2024-04-16T07:31:55.100Z,21.70
2024-04-16T07:34:22.771Z,21.90
2024-04-16T07:36:50.417Z,22.40
2024-04-16T07:39:17.951Z,22.80
2024-04-16T07:41:47.036Z,23.20
2024-04-16T07:44:14.595Z,23.60
2024-04-16T07:46:42.230Z,23.90
2024-04-16T07:49:09.800Z,24.20
2024-04-16T07:51:37.307Z,24.50
2024-04-16T07:54:04.915Z,24.50
2024-04-16T07:56:32.418Z,24.50
2024-04-16T07:58:59.934Z,24.60
2024-04-16T08:01:27.617Z,24.80
2024-04-16T08:03:55.243Z,24.80
2024-04-16T08:06:22.806Z,24.70
2024-04-16T08:08:50.588Z,24.50
2024-04-16T08:11:18.223Z,24.50
2024-04-16T08:13:45.869Z,24.10
2024-04-16T08:16:13.575Z,23.80
2024-04-16T08:18:42.137Z,23.60
2024-04-16T08:21:09.929Z,23.50
2024-04-16T08:23:37.482Z,23.40
2024-04-16T08:26:09.079Z,23.30
2024-04-16T08:28:38.226Z,23.30
2024-04-16T08:31:06.661Z,23.80
2024-04-16T08:33:34.525Z,23.70
2024-04-16T08:36:02.223Z,24.00
2024-04-16T08:38:30.046Z,24.20
2024-04-16T08:40:57.686Z,24.00
2024-04-16T08:43:26.997Z,24.00
2024-04-16T08:45:56.423Z,23.70
2024-04-16T08:48:24.241Z,23.50
2024-04-16T08:50:52.286Z,23.30
2024-04-16T08:53:21.271Z,23.20
2024-04-16T08:55:50.420Z,23.40
2024-04-16T08:58:19.378Z,23.50
2024-04-16T09:00:48.236Z,23.50
2024-04-16T09:03:15.976Z,23.70
2024-04-16T09:05:44.465Z,23.30
2024-04-16T09:08:11.952Z,23.20
2024-04-16T09:10:39.602Z,23.30
2024-04-16T09:13:12.736Z,23.60
2024-04-16T09:15:40.753Z,23.60
2024-04-16T09:18:08.892Z,23.50
2024-04-16T09:20:36.735Z,23.60
2024-04-16T09:23:06.653Z,23.50
2024-04-16T09:25:40.561Z,23.80
2024-04-16T09:28:08.247Z,23.50
2024-04-16T09:30:35.975Z,23.50
2024-04-16T09:33:11.203Z,23.50
2024-04-16T09:35:43.523Z,23.80
2024-04-16T09:38:11.157Z,23.50
2024-04-16T09:40:38.905Z,23.70
2024-04-16T09:43:07.859Z,24.00
2024-04-16T09:45:36.868Z,24.00
2024-04-16T09:48:06.129Z,24.10
2024-04-16T09:50:46.142Z,24.10
2024-04-16T09:53:22.909Z,24.10
2024-04-16T09:55:51.501Z,24.20
2024-04-16T09:58:19.441Z,24.20
2024-04-16T10:00:48.580Z,24.30
2024-04-16T10:03:16.663Z,24.50
2024-04-16T10:05:44.301Z,24.70
2024-04-16T10:08:14.516Z,24.70
2024-04-16T10:10:45.289Z,24.60
2024-04-16T10:13:14.628Z,24.70
2024-04-16T10:15:46.249Z,24.70
2024-04-16T10:18:13.961Z,24.40
2024-04-16T10:20:57.932Z,24.60
2024-04-16T10:23:25.475Z,25.00
2024-04-16T10:25:54.082Z,24.90
2024-04-16T10:28:33.007Z,25.00
2024-04-16T10:31:03.356Z,24.90
2024-04-16T10:33:38.780Z,24.80
2024-04-16T10:36:09.765Z,24.60
2024-04-16T10:38:37.825Z,24.60
2024-04-16T10:41:05.603Z,24.70
2024-04-16T10:43:37.370Z,24.70
2024-04-16T10:46:07.782Z,24.60
2024-04-16T10:48:36.070Z,24.50
2024-04-16T10:51:03.726Z,24.30
2024-04-16T10:53:31.488Z,23.90
2024-04-16T10:55:59.110Z,24.30
2024-04-16T10:58:26.653Z,24.50
2024-04-16T11:00:55.088Z,24.70
2024-04-16T11:03:23.067Z,24.40
2024-04-16T11:05:51.274Z,24.70
2024-04-16T11:08:19.204Z,24.60
2024-04-16T11:10:46.899Z,24.60
2024-04-16T11:13:14.619Z,24.50
2024-04-16T11:15:42.656Z,24.20
2024-04-16T11:18:10.428Z,24.10
2024-04-16T11:20:40.322Z,23.90
2024-04-16T11:23:08.274Z,23.80
2024-04-16T11:25:35.900Z,24.20
2024-04-16T11:28:03.574Z,23.60
2024-04-16T11:30:31.324Z,23.90
2024-04-16T11:33:00.209Z,24.00
2024-04-16T11:35:27.875Z,23.90
2024-04-16T11:37:55.388Z,23.80
2024-04-16T11:40:24.835Z,24.00
2024-04-16T11:42:52.452Z,23.90
2024-04-16T11:45:20.533Z,23.70
2024-04-16T11:47:48.933Z,23.80
2024-04-16T11:50:18.010Z,23.90
2024-04-16T11:52:45.527Z,23.90
2024-04-16T11:55:13.135Z,23.80
2024-04-16T11:57:40.752Z,23.90
2024-04-16T12:00:08.838Z,23.50
2024-04-16T12:02:38.150Z,23.30
2024-04-16T12:05:06.014Z,23.50
2024-04-16T12:07:33.735Z,23.40
2024-04-16T12:10:01.345Z,23.50
2024-04-16T12:12:29.004Z,23.70
2024-04-16T12:14:56.550Z,23.90
2024-04-16T12:17:24.173Z,23.70
2024-04-16T12:19:51.811Z,23.90
2024-04-16T12:22:19.510Z,23.60
2024-04-16T12:24:47.264Z,23.40
2024-04-16T12:27:14.778Z,23.50
2024-04-16T12:29:42.340Z,23.60
2024-04-16T12:32:10.300Z,23.60
2024-04-16T12:34:37.884Z,23.50
2024-04-16T12:37:05.585Z,23.10
2024-04-16T12:39:33.213Z,23.30
2024-04-16T12:42:00.678Z,23.40
2024-04-16T12:44:28.776Z,23.70
2024-04-16T12:46:56.336Z,24.10
2024-04-16T12:49:25.685Z,24.20
2024-04-16T12:51:54.537Z,24.50
2024-04-16T12:54:22.127Z,24.10
2024-04-16T12:56:52.675Z,23.80
2024-04-16T12:59:21.521Z,23.50
2024-04-16T13:01:49.104Z,24.00
2024-04-16T13:04:16.736Z,24.00
2024-04-16T13:06:44.339Z,24.10
2024-04-16T13:09:11.912Z,23.90
2024-04-16T13:11:39.481Z,23.30
2024-04-16T13:14:09.064Z,22.70
2024-04-16T13:16:37.544Z,22.10
2024-04-16T13:19:05.150Z,21.60
2024-04-16T13:21:32.971Z,21.50
2024-04-16T13:24:00.518Z,21.60
2024-04-16T13:26:28.159Z,21.50
2024-04-16T13:28:55.925Z,21.60
2024-04-16T13:31:23.556Z,21.80
2024-04-16T13:33:51.390Z,22.10
2024-04-16T13:36:18.902Z,22.20
2024-04-16T13:38:46.425Z,22.30
2024-04-16T13:41:13.975Z,22.10
2024-04-16T13:43:41.524Z,21.80
2024-04-16T13:46:09.078Z,21.30
2024-04-16T13:48:36.921Z,21.10
2024-04-16T13:51:05.102Z,20.80
2024-04-16T13:53:32.667Z,20.70
2024-04-16T13:56:00.358Z,20.60
2024-04-16T13:58:27.979Z,20.50
2024-04-16T14:00:55.872Z,20.60
2024-04-16T14:03:23.498Z,21.20
2024-04-16T14:05:51.052Z,21.40
2024-04-16T14:08:18.607Z,21.80
2024-04-16T14:10:46.395Z,22.10
2024-04-16T14:13:14.077Z,22.20
2024-04-16T14:15:41.618Z,22.40
2024-04-16T14:18:09.241Z,22.60
2024-04-16T14:20:36.800Z,22.70
2024-04-16T14:23:04.593Z,22.90
2024-04-16T14:25:32.153Z,22.90
2024-04-16T14:27:59.810Z,23.10
2024-04-16T14:30:27.597Z,23.10
2024-04-16T14:32:58.146Z,23.10
2024-04-16T14:35:25.860Z,22.90
2024-04-16T14:37:53.869Z,22.90
2024-04-16T14:40:21.465Z,22.70
2024-04-16T14:42:49.097Z,22.50
2024-04-16T14:45:16.733Z,22.70
2024-04-16T14:47:44.335Z,22.40
2024-04-16T14:50:11.934Z,22.60
2024-04-16T14:52:39.476Z,22.80
2024-04-16T14:55:07.083Z,23.00
2024-04-16T14:57:34.619Z,23.20
2024-04-16T15:00:02.149Z,22.80
2024-04-16T15:02:29.789Z,22.90
2024-04-16T15:04:57.430Z,23.10
2024-04-16T15:07:25.002Z,23.30
2024-04-16T15:09:52.589Z,23.50
2024-04-16T15:12:20.124Z,23.50
2024-04-16T15:14:47.629Z,23.50
2024-04-16T15:17:15.496Z,23.80
2024-04-16T15:19:43.258Z,23.80
2024-04-16T15:22:10.955Z,23.90
2024-04-16T15:24:38.507Z,24.00
2024-04-16T15:27:06.208Z,24.20
2024-04-16T15:29:33.926Z,24.10
2024-04-16T15:32:01.524Z,23.90
2024-04-16T15:34:29.166Z,23.80
2024-04-16T15:36:56.735Z,23.60
2024-04-16T15:39:24.277Z,23.60
2024-04-16T15:41:51.890Z,23.50
2024-04-16T15:44:19.389Z,23.40
2024-04-16T15:46:47.071Z,23.60
2024-04-16T15:49:14.680Z,23.60
2024-04-16T15:51:42.228Z,23.80
2024-04-16T15:54:09.770Z,24.00
2024-04-16T15:56:37.281Z,24.20
2024-04-16T15:59:04.784Z,24.20
2024-04-16T16:01:32.426Z,24.30
2024-04-16T16:04:00.264Z,24.30
2024-04-16T16:06:27.923Z,24.20
2024-04-16T16:08:55.776Z,24.30
2024-04-16T16:11:23.470Z,24.30
2024-04-16T16:13:51.071Z,24.10
2024-04-16T16:16:18.878Z,23.80
2024-04-16T16:18:46.778Z,23.40
2024-04-16T16:21:14.368Z,23.30
2024-04-16T16:23:42.016Z,23.30
2024-04-16T16:26:09.637Z,23.50
2024-04-16T16:28:38.322Z,23.70
2024-04-16T16:31:06.089Z,23.80
2024-04-16T16:33:33.693Z,23.80
2024-04-16T16:36:01.564Z,24.00
2024-04-16T16:38:29.203Z,23.90
2024-04-16T16:40:56.753Z,23.90
2024-04-16T16:43:24.844Z,23.90
2024-04-16T16:45:52.427Z,23.80
2024-04-16T16:48:20.019Z,23.50
2024-04-16T16:50:47.640Z,23.50
2024-04-16T16:53:18.393Z,23.30
2024-04-16T16:55:53.945Z,23.30
2024-04-16T16:58:21.861Z,23.00
2024-04-16T17:00:51.168Z,22.80
2024-04-16T17:03:19.012Z,22.80
2024-04-16T17:05:46.746Z,22.80
2024-04-16T17:08:14.271Z,22.80
2024-04-16T17:10:41.869Z,22.90
2024-04-16T17:13:09.482Z,23.10
2024-04-16T17:15:37.014Z,23.10
2024-04-16T17:18:07.136Z,23.30
2024-04-16T17:20:35.082Z,23.50
2024-04-16T17:23:03.929Z,23.70
2024-04-16T17:25:31.467Z,23.70
2024-04-16T17:27:59.056Z,23.70
2024-04-16T17:30:26.768Z,23.50
2024-04-16T17:32:54.815Z,23.20
2024-04-16T17:35:22.735Z,23.00
2024-04-16T17:37:50.509Z,22.70
2024-04-16T17:40:18.447Z,22.50
2024-04-16T17:42:45.977Z,22.30
2024-04-16T17:45:13.499Z,22.30
2024-04-16T17:47:41.182Z,22.20
2024-04-16T17:50:09.466Z,22.20
2024-04-16T17:52:37.432Z,22.30
2024-04-16T17:55:05.890Z,22.30
2024-04-16T17:57:33.453Z,22.30
2024-04-16T18:00:00.970Z,22.30
2024-04-16T18:02:28.649Z,22.30
2024-04-16T18:04:56.247Z,22.00
2024-04-16T18:07:23.774Z,21.70
2024-04-16T18:09:51.494Z,21.30
2024-04-16T18:12:19.033Z,20.70
2024-04-16T18:14:46.562Z,20.40
2024-04-16T18:17:14.184Z,20.20
2024-04-16T18:19:41.747Z,20.20
2024-04-16T18:22:09.395Z,20.10
2024-04-16T18:24:37.296Z,20.00
2024-04-16T18:27:04.838Z,20.00
2024-04-16T18:29:32.394Z,19.90
2024-04-16T18:31:59.985Z,19.80
2024-04-16T18:34:27.775Z,19.70
2024-04-16T18:36:55.389Z,19.60
2024-04-16T18:39:23.354Z,19.40
2024-04-16T18:41:50.984Z,19.30
2024-04-16T18:44:18.743Z,19.20
2024-04-16T18:46:46.575Z,19.10
2024-04-16T18:49:14.457Z,19.00
2024-04-16T18:51:42.564Z,18.80
2024-04-16T18:54:10.602Z,18.60
2024-04-16T18:56:38.738Z,18.50
2024-04-16T18:59:06.781Z,18.40
2024-04-16T19:01:34.910Z,18.30
2024-04-16T19:04:03.131Z,18.30
2024-04-16T19:06:31.264Z,18.30
2024-04-16T19:08:59.359Z,18.20
2024-04-16T19:11:27.458Z,18.10
2024-04-16T19:13:58.560Z,18.10
2024-04-16T19:16:26.590Z,18.00
2024-04-16T19:18:54.741Z,18.00
2024-04-16T19:21:22.901Z,17.90
2024-04-16T19:23:51.035Z,18.00
2024-04-16T19:26:20.704Z,18.00
2024-04-16T19:28:48.787Z,18.00
2024-04-16T19:31:17.041Z,17.80
2024-04-16T19:33:52.418Z,17.70
2024-04-16T19:36:23.808Z,17.70
2024-04-16T19:38:55.449Z,17.70
2024-04-16T19:41:24.293Z,17.70
2024-04-16T19:43:52.658Z,17.70
2024-04-16T19:46:21.531Z,17.80
2024-04-16T19:48:49.812Z,17.80
2024-04-16T19:51:18.291Z,17.80
2024-04-16T19:53:46.266Z,17.80
2024-04-16T19:56:17.044Z,17.90
2024-04-16T19:58:45.099Z,17.90
2024-04-16T20:01:16.453Z,18.00
2024-04-16T20:03:44.581Z,18.00
2024-04-16T20:06:19.410Z,18.00
2024-04-16T20:08:47.641Z,18.00
2024-04-16T20:11:15.828Z,18.00
2024-04-16T20:13:53.631Z,18.00
2024-04-16T20:16:23.064Z,18.00
2024-04-16T20:18:51.256Z,17.90
2024-04-16T20:21:19.468Z,17.70
2024-04-16T20:23:47.774Z,17.70
2024-04-16T20:26:16.358Z,17.60
2024-04-16T20:28:47.143Z,17.60
2024-04-16T20:31:19.285Z,17.50
2024-04-16T20:33:54.824Z,17.50
2024-04-16T20:36:23.053Z,17.40
2024-04-16T20:38:50.842Z,17.30
2024-04-16T20:41:18.977Z,17.30
2024-04-16T20:43:52.655Z,17.20
2024-04-16T20:46:23.614Z,17.20
2024-04-16T20:48:54.716Z,17.20
2024-04-16T20:51:22.841Z,17.20
2024-04-16T20:53:50.944Z,17.10
2024-04-16T20:56:22.011Z,17.10
2024-04-16T20:58:50.296Z,17.20
2024-04-16T21:01:18.422Z,17.20
2024-04-16T21:03:46.479Z,17.20
2024-04-16T21:06:14.526Z,17.20
2024-04-16T21:08:42.434Z,17.10
2024-04-16T21:11:10.597Z,17.00
2024-04-16T21:13:38.432Z,16.90
2024-04-16T21:16:06.564Z,16.80
2024-04-16T21:18:34.477Z,16.80
2024-04-16T21:21:02.243Z,16.70
2024-04-16T21:23:29.816Z,16.60
2024-04-16T21:25:57.399Z,16.60
2024-04-16T21:28:25.013Z,16.50
2024-04-16T21:30:52.606Z,16.50
2024-04-16T21:33:20.136Z,16.50
2024-04-16T21:35:48.101Z,16.50
2024-04-16T21:38:15.893Z,16.50
2024-04-16T21:40:43.423Z,16.60
2024-04-16T21:43:10.990Z,16.60
2024-04-16T21:45:39.060Z,16.70
2024-04-16T21:48:06.945Z,16.60
2024-04-16T21:50:34.452Z,16.60
2024-04-16T21:53:02.106Z,16.70
2024-04-16T21:55:29.613Z,16.70
2024-04-16T21:57:57.144Z,16.60
2024-04-16T22:00:25.212Z,16.70
2024-04-16T22:02:53.473Z,16.60
2024-04-16T22:05:22.488Z,16.60
2024-04-16T22:07:50.699Z,16.60
2024-04-16T22:10:19.062Z,16.60
2024-04-16T22:12:46.935Z,16.60
2024-04-16T22:15:14.782Z,16.50
2024-04-16T22:17:42.600Z,16.50
2024-04-16T22:20:10.308Z,16.40
2024-04-16T22:22:37.982Z,16.40
2024-04-16T22:25:05.983Z,16.30
2024-04-16T22:27:33.542Z,16.30
2024-04-16T22:30:01.123Z,16.30
2024-04-16T22:32:29.257Z,16.40
2024-04-16T22:34:56.889Z,16.30
2024-04-16T22:37:24.517Z,16.30
2024-04-16T22:39:52.317Z,16.30
2024-04-16T22:42:19.854Z,16.30
2024-04-16T22:47:32.283Z,16.20
2024-04-16T22:49:59.882Z,16.30
2024-04-16T22:52:27.728Z,16.30
2024-04-16T22:54:55.454Z,16.20
2024-04-16T22:57:23.010Z,16.30
2024-04-16T22:59:50.652Z,16.30
2024-04-16T23:02:18.395Z,16.30
2024-04-16T23:04:46.545Z,16.30
2024-04-16T23:07:14.284Z,16.30
2024-04-16T23:09:41.939Z,16.40
2024-04-16T23:12:09.568Z,16.40
2024-04-16T23:14:37.187Z,16.40
2024-04-16T23:17:05.231Z,16.50
2024-04-16T23:19:33.039Z,16.60
2024-04-16T23:22:01.424Z,16.60
2024-04-16T23:24:29.017Z,16.60
2024-04-16T23:26:56.665Z,16.70
2024-04-16T23:29:24.232Z,16.80
2024-04-16T23:31:51.834Z,16.80
2024-04-16T23:34:19.451Z,16.60
2024-04-16T23:36:47.045Z,16.60
2024-04-16T23:39:14.669Z,16.60
2024-04-16T23:41:42.243Z,16.50
2024-04-16T23:44:09.892Z,16.60
2024-04-16T23:46:37.788Z,16.50
2024-04-16T23:49:05.338Z,16.60
2024-04-16T23:51:32.922Z,16.50
2024-04-16T23:54:00.916Z,16.50
2024-04-16T23:56:28.511Z,16.50
2024-04-16T23:58:56.104Z,16.40
